createdAt,value
2023-07-01T00:01:56.945Z,25.82
2023-07-01T00:04:23.845Z,25.78
2023-07-01T00:06:51.051Z,25.71
2023-07-01T00:09:17.860Z,25.74
2023-07-01T00:11:44.949Z,25.66
2023-07-01T00:14:11.893Z,25.63
2023-07-01T00:16:41.266Z,25.59
2023-07-01T00:19:08.396Z,25.55
2023-07-01T00:21:35.478Z,25.62
2023-07-01T00:24:02.330Z,25.56
2023-07-01T00:26:29.445Z,25.50
2023-07-01T00:28:56.240Z,25.50
2023-07-01T00:31:23.571Z,25.49
2023-07-01T00:33:50.472Z,25.49
2023-07-01T00:36:17.548Z,25.44
2023-07-01T00:38:44.592Z,25.42
2023-07-01T00:41:11.755Z,25.43
2023-07-01T00:43:38.585Z,25.40
2023-07-01T00:46:05.769Z,25.43
2023-07-01T00:48:32.573Z,25.43
2023-07-01T00:51:09.579Z,25.34
2023-07-01T00:53:43.462Z,25.37
2023-07-01T00:56:10.553Z,25.34
2023-07-01T00:58:37.367Z,25.34
2023-07-01T01:01:08.943Z,25.25
2023-07-01T01:03:40.606Z,25.18
2023-07-01T01:06:18.520Z,25.23
2023-07-01T01:08:58.452Z,25.18
2023-07-01T01:11:26.384Z,25.15
2023-07-01T01:13:53.636Z,25.18
2023-07-01T01:16:21.062Z,25.10
2023-07-01T01:18:48.004Z,25.05
2023-07-01T01:21:15.233Z,25.13
2023-07-01T01:23:47.946Z,25.06
2023-07-01T01:26:21.652Z,25.09
2023-07-01T01:28:48.592Z,25.02
2023-07-01T01:31:15.779Z,25.09
2023-07-01T01:33:42.686Z,25.00
2023-07-01T01:36:27.085Z,25.06
2023-07-01T01:38:53.887Z,24.96
2023-07-01T01:41:25.006Z,25.00
2023-07-01T01:43:58.684Z,24.92
2023-07-01T01:46:26.288Z,24.89
2023-07-01T01:48:54.412Z,24.98
2023-07-01T01:51:21.685Z,24.94
2023-07-01T01:53:48.588Z,24.97
2023-07-01T01:56:15.694Z,24.91
2023-07-01T01:58:42.840Z,24.88
2023-07-01T02:01:09.986Z,24.80
2023-07-01T02:03:36.839Z,24.76
2023-07-01T02:06:04.043Z,24.77
2023-07-01T02:08:31.311Z,24.78
2023-07-01T02:10:59.026Z,24.78
2023-07-01T02:13:25.952Z,24.73
2023-07-01T02:15:53.131Z,24.74
2023-07-01T02:18:19.924Z,24.73
2023-07-01T02:20:47.357Z,24.70
2023-07-01T02:23:14.265Z,24.68
2023-07-01T02:25:42.448Z,24.72
2023-07-01T02:28:09.345Z,24.68
2023-07-01T02:30:36.522Z,24.62
2023-07-01T02:33:03.526Z,24.59
2023-07-01T02:35:30.699Z,24.51
2023-07-01T02:37:57.465Z,24.50
2023-07-01T02:40:24.734Z,24.48
2023-07-01T02:42:51.547Z,24.48
2023-07-01T02:45:18.682Z,24.47
2023-07-01T02:47:45.542Z,24.47
2023-07-01T02:50:12.739Z,24.47
2023-07-01T02:52:39.578Z,24.42
2023-07-01T02:55:07.283Z,24.37
2023-07-01T02:57:34.075Z,24.39
2023-07-01T03:00:01.392Z,24.42
2023-07-01T03:02:28.310Z,24.41
2023-07-01T03:04:55.557Z,24.40
2023-07-01T03:07:22.356Z,24.35
2023-07-01T03:09:49.449Z,24.33
2023-07-01T03:12:16.400Z,24.31
2023-07-01T03:14:44.426Z,24.26
2023-07-01T03:17:12.583Z,24.32
2023-07-01T03:19:42.766Z,24.33
2023-07-01T03:22:09.694Z,24.26
2023-07-01T03:24:36.764Z,24.25
2023-07-01T03:27:04.452Z,24.23
2023-07-01T03:29:31.625Z,24.17
2023-07-01T03:31:58.506Z,24.19
2023-07-01T03:34:26.929Z,24.17
2023-07-01T03:36:53.862Z,24.18
2023-07-01T03:39:20.985Z,24.16
2023-07-01T03:41:47.763Z,24.17
2023-07-01T03:44:14.898Z,24.17
2023-07-01T03:46:41.777Z,24.14
2023-07-01T03:49:08.919Z,24.10
2023-07-01T03:51:35.789Z,24.12
2023-07-01T03:54:02.909Z,24.10
2023-07-01T03:56:29.722Z,24.07
2023-07-01T03:58:56.977Z,24.06
2023-07-01T04:01:26.077Z,24.06
2023-07-01T04:03:54.699Z,24.06
2023-07-01T04:06:21.770Z,24.06
2023-07-01T04:08:56.104Z,24.06
2023-07-01T04:11:23.416Z,24.01
2023-07-01T04:13:50.575Z,23.98
2023-07-01T04:16:17.411Z,23.96
2023-07-01T04:18:44.673Z,23.95
2023-07-01T04:21:11.544Z,23.94
2023-07-01T04:23:38.698Z,23.96
2023-07-01T04:26:06.240Z,23.96
2023-07-01T04:28:33.425Z,23.92
2023-07-01T04:31:00.376Z,23.94
2023-07-01T04:33:27.532Z,23.85
2023-07-01T04:35:54.354Z,23.95
2023-07-01T04:38:21.524Z,23.87
2023-07-01T04:40:51.218Z,23.87
2023-07-01T04:43:20.574Z,23.93
2023-07-01T04:45:47.363Z,23.88
2023-07-01T04:48:14.478Z,23.90
2023-07-01T04:50:41.283Z,23.88
2023-07-01T04:53:08.439Z,23.88
2023-07-01T04:55:35.276Z,23.85
2023-07-01T04:58:02.486Z,23.85
2023-07-01T05:00:29.278Z,23.87
2023-07-01T05:02:56.864Z,23.85
2023-07-01T05:05:24.092Z,23.82
2023-07-01T05:07:51.273Z,23.84
2023-07-01T05:10:18.256Z,23.82
2023-07-01T05:12:46.105Z,23.80
2023-07-01T05:15:12.982Z,23.75
2023-07-01T05:17:40.174Z,23.79
2023-07-01T05:20:07.622Z,23.80
2023-07-01T05:22:34.741Z,23.73
2023-07-01T05:25:01.572Z,23.74
2023-07-01T05:27:28.701Z,23.77
2023-07-01T05:29:55.676Z,23.71
2023-07-01T05:32:22.820Z,23.76
2023-07-01T05:34:49.704Z,23.77
2023-07-01T05:37:16.824Z,23.76
2023-07-01T05:39:43.636Z,23.75
2023-07-01T05:42:10.800Z,23.73
2023-07-01T05:44:37.677Z,23.79
2023-07-01T05:47:05.094Z,23.81
2023-07-01T05:49:31.951Z,23.68
2023-07-01T05:51:59.116Z,23.75
2023-07-01T05:54:25.905Z,23.76
2023-07-01T05:56:53.073Z,23.75
2023-07-01T05:59:19.985Z,23.75
2023-07-01T06:01:47.196Z,23.77
2023-07-01T06:04:14.144Z,23.70
2023-07-01T06:06:41.369Z,23.69
2023-07-01T06:09:09.493Z,23.69
2023-07-01T06:11:37.140Z,23.73
2023-07-01T06:14:04.188Z,23.71
2023-07-01T06:16:31.475Z,23.71
2023-07-01T06:18:58.572Z,23.67
2023-07-01T06:21:25.806Z,23.65
2023-07-01T06:23:56.740Z,23.66
2023-07-01T06:26:23.912Z,23.69
2023-07-01T06:28:50.735Z,23.67
2023-07-01T06:31:17.853Z,23.66
2023-07-01T06:33:45.815Z,23.62
2023-07-01T06:36:14.277Z,23.65
2023-07-01T06:38:41.939Z,23.58
2023-07-01T06:41:09.073Z,23.67
2023-07-01T06:43:40.253Z,23.63
2023-07-01T06:46:07.543Z,23.62
2023-07-01T06:48:34.435Z,23.62
2023-07-01T06:51:01.608Z,23.61
2023-07-01T06:53:28.409Z,23.63
2023-07-01T06:55:55.523Z,23.61
2023-07-01T06:58:22.574Z,23.64
2023-07-01T07:00:49.861Z,23.63
2023-07-01T07:03:16.753Z,23.60
2023-07-01T07:05:44.168Z,23.66
2023-07-01T07:08:10.976Z,23.61
2023-07-01T07:10:38.754Z,23.64
2023-07-01T07:13:05.561Z,23.65
2023-07-01T07:15:32.758Z,23.66
2023-07-01T07:18:01.036Z,23.68
2023-07-01T07:20:28.681Z,23.69
2023-07-01T07:22:55.480Z,23.71
2023-07-01T07:25:23.533Z,23.75
2023-07-01T07:27:50.337Z,23.76
2023-07-01T07:30:17.558Z,23.78
2023-07-01T07:32:44.574Z,23.80
2023-07-01T07:35:11.807Z,23.83
2023-07-01T07:37:38.696Z,23.86
2023-07-01T07:40:08.550Z,23.87
2023-07-01T07:42:36.106Z,23.88
2023-07-01T07:45:04.427Z,23.93
2023-07-01T07:47:31.600Z,23.92
2023-07-01T07:49:58.780Z,23.97
2023-07-01T07:52:25.684Z,24.00
2023-07-01T07:54:52.797Z,24.03
2023-07-01T07:57:19.843Z,24.07
2023-07-01T07:59:46.997Z,24.11
2023-07-01T08:02:13.816Z,24.16
2023-07-01T08:04:40.977Z,24.20
2023-07-01T08:07:08.967Z,24.22
2023-07-01T08:09:36.940Z,24.26
2023-07-01T08:12:04.184Z,24.32
2023-07-01T08:14:31.890Z,24.35
2023-07-01T08:17:01.742Z,24.39
2023-07-01T08:19:29.060Z,24.43
2023-07-01T08:21:55.914Z,24.48
2023-07-01T08:24:23.170Z,24.51
2023-07-01T08:26:50.031Z,24.54
2023-07-01T08:29:17.279Z,24.54
2023-07-01T08:31:44.079Z,24.65
2023-07-01T08:34:11.272Z,24.73
2023-07-01T08:36:38.154Z,24.78
2023-07-01T08:39:05.376Z,24.83
2023-07-01T08:41:32.253Z,24.88
2023-07-01T08:43:59.376Z,24.93
2023-07-01T08:46:26.438Z,24.94
2023-07-01T08:48:53.859Z,25.00
2023-07-01T08:51:27.553Z,25.09
2023-07-01T08:53:54.920Z,25.17
2023-07-01T08:56:21.996Z,25.22
2023-07-01T08:58:49.408Z,25.29
2023-07-01T09:01:16.835Z,25.32
2023-07-01T09:03:44.090Z,25.38
2023-07-01T09:06:10.946Z,25.43
2023-07-01T09:08:40.925Z,25.49
2023-07-01T09:11:10.886Z,25.51
2023-07-01T09:13:38.089Z,25.54
2023-07-01T09:16:05.070Z,25.61
2023-07-01T09:18:32.266Z,25.61
2023-07-01T09:20:59.401Z,25.69
2023-07-01T09:23:35.247Z,25.72
2023-07-01T09:26:08.536Z,25.77
2023-07-01T09:28:35.882Z,25.86
2023-07-01T09:31:04.504Z,25.87
2023-07-01T09:33:32.187Z,25.92
2023-07-01T09:36:02.523Z,25.94
2023-07-01T09:38:33.216Z,26.00
2023-07-01T09:41:13.741Z,26.05
2023-07-01T09:43:41.672Z,26.09
2023-07-01T09:46:09.461Z,26.13
2023-07-01T09:48:37.233Z,26.18
2023-07-01T09:51:04.923Z,26.20
2023-07-01T09:53:36.672Z,26.27
2023-07-01T09:56:05.328Z,26.30
2023-07-01T09:58:32.914Z,26.35
2023-07-01T10:01:00.582Z,26.38
2023-07-01T10:03:28.328Z,26.37
2023-07-01T10:05:55.722Z,26.44
2023-07-01T10:08:23.432Z,26.48
2023-07-01T10:11:11.060Z,26.47
2023-07-01T10:13:43.937Z,26.58
2023-07-01T10:16:11.173Z,26.62
2023-07-01T10:18:38.521Z,26.70
2023-07-01T10:21:23.962Z,26.79
2023-07-01T10:23:57.896Z,26.78
2023-07-01T10:26:49.374Z,26.87
2023-07-01T10:29:28.779Z,26.92
2023-07-01T10:32:11.013Z,26.97
2023-07-01T10:34:56.655Z,27.11
2023-07-01T10:37:23.911Z,27.13
2023-07-01T10:39:51.437Z,27.17
2023-07-01T10:42:32.712Z,27.23
2023-07-01T10:45:12.605Z,27.33
2023-07-01T10:47:46.627Z,27.43
2023-07-01T10:50:19.736Z,27.53
2023-07-01T10:52:58.883Z,27.60
2023-07-01T10:55:46.703Z,27.67
2023-07-01T10:58:24.735Z,27.76
2023-07-01T11:00:55.808Z,27.84
2023-07-01T11:03:35.584Z,27.98
2023-07-01T11:06:13.120Z,28.01
2023-07-01T11:08:49.838Z,28.06
2023-07-01T11:11:35.121Z,28.25
2023-07-01T11:14:04.374Z,28.39
2023-07-01T11:16:32.113Z,28.51
2023-07-01T11:19:03.606Z,28.63
2023-07-01T11:21:31.363Z,28.70
2023-07-01T11:24:06.049Z,28.81
2023-07-01T11:26:33.815Z,28.90
2023-07-01T11:29:00.901Z,29.02
2023-07-01T11:31:34.652Z,29.07
2023-07-01T11:34:01.891Z,29.18
2023-07-01T11:36:38.087Z,29.29
2023-07-01T11:39:09.609Z,29.40
2023-07-01T11:41:37.958Z,29.46
2023-07-01T11:44:08.896Z,29.54
2023-07-01T11:46:38.522Z,29.56
2023-07-01T11:49:11.463Z,29.65
2023-07-01T11:51:39.318Z,29.74
2023-07-01T11:54:06.146Z,29.83
2023-07-01T11:56:33.446Z,29.90
2023-07-01T11:59:01.510Z,29.95
2023-07-01T12:01:29.293Z,30.00
2023-07-01T12:03:56.673Z,30.03
2023-07-01T12:06:26.004Z,30.06
2023-07-01T12:09:07.508Z,30.11
2023-07-01T12:11:49.268Z,30.15
2023-07-01T12:14:20.181Z,30.24
2023-07-01T12:16:49.217Z,30.27
2023-07-01T12:19:19.924Z,30.32
2023-07-01T12:21:47.610Z,30.39
2023-07-01T12:24:21.932Z,30.34
2023-07-01T12:26:53.401Z,30.42
2023-07-01T12:29:20.748Z,30.44
2023-07-01T12:31:48.339Z,30.46
2023-07-01T12:34:16.000Z,30.52
2023-07-01T12:36:43.801Z,30.48
2023-07-01T12:39:10.812Z,30.54
2023-07-01T12:41:38.084Z,30.56
2023-07-01T12:44:06.017Z,30.55
2023-07-01T12:46:33.481Z,30.61
2023-07-01T12:49:01.880Z,30.64
2023-07-01T12:51:29.090Z,30.70
2023-07-01T12:54:07.607Z,30.77
2023-07-01T12:56:43.349Z,30.86
2023-07-01T12:59:10.124Z,30.88
2023-07-01T13:01:37.313Z,30.91
2023-07-01T13:04:07.565Z,30.93
2023-07-01T13:06:39.949Z,30.92
2023-07-01T13:09:08.267Z,31.03
2023-07-01T13:11:37.804Z,31.12
2023-07-01T13:14:12.885Z,31.13
2023-07-01T13:16:43.964Z,31.04
2023-07-01T13:19:14.828Z,31.06
2023-07-01T13:21:48.661Z,31.24
2023-07-01T13:24:15.899Z,31.19
2023-07-01T13:26:47.909Z,31.31
2023-07-01T13:29:18.819Z,31.28
2023-07-01T13:31:50.123Z,31.43
2023-07-01T13:34:20.211Z,31.52
2023-07-01T13:36:52.397Z,31.54
2023-07-01T13:39:44.640Z,31.60
2023-07-01T13:42:11.984Z,31.59
2023-07-01T13:44:39.689Z,31.60
2023-07-01T13:47:08.084Z,31.72
2023-07-01T13:49:34.984Z,31.75
2023-07-01T13:52:02.532Z,31.81
2023-07-01T13:54:29.776Z,31.79
2023-07-01T13:56:58.721Z,31.80
2023-07-01T13:59:27.106Z,31.83
2023-07-01T14:02:06.863Z,31.85
2023-07-01T14:04:37.344Z,31.93
2023-07-01T14:07:05.998Z,31.94
2023-07-01T14:09:34.942Z,31.98
2023-07-01T14:12:02.239Z,32.04
2023-07-01T14:14:30.153Z,32.00
2023-07-01T14:16:57.596Z,32.02
2023-07-01T14:19:24.513Z,31.97
2023-07-01T14:21:54.466Z,32.04
2023-07-01T14:24:28.301Z,32.06
2023-07-01T14:27:01.593Z,32.11
2023-07-01T14:29:28.704Z,32.12
2023-07-01T14:31:57.348Z,32.14
2023-07-01T14:34:32.146Z,32.16
2023-07-01T14:36:59.819Z,32.20
2023-07-01T14:39:46.851Z,32.17
2023-07-01T14:42:34.699Z,32.22
2023-07-01T14:45:01.668Z,32.28
2023-07-01T14:47:29.636Z,32.22
2023-07-01T14:49:56.620Z,32.27
2023-07-01T14:52:25.720Z,32.35
2023-07-01T14:54:53.033Z,32.37
2023-07-01T14:57:21.347Z,32.35
2023-07-01T14:59:48.254Z,32.39
2023-07-01T15:02:15.355Z,32.42
2023-07-01T15:04:42.231Z,32.46
2023-07-01T15:07:09.745Z,32.52
2023-07-01T15:09:36.735Z,32.54
2023-07-01T15:12:04.063Z,32.56
2023-07-01T15:14:30.873Z,32.53
2023-07-01T15:16:57.980Z,32.53
2023-07-01T15:19:25.329Z,32.59
2023-07-01T15:21:52.497Z,32.60
2023-07-01T15:24:19.374Z,32.61
2023-07-01T15:26:46.500Z,32.61
2023-07-01T15:29:13.350Z,32.68
2023-07-01T15:31:40.486Z,32.67
2023-07-01T15:34:07.428Z,32.71
2023-07-01T15:36:36.283Z,32.71
2023-07-01T15:39:03.993Z,32.76
2023-07-01T15:41:45.981Z,32.78
2023-07-01T15:44:14.403Z,32.79
2023-07-01T15:46:43.653Z,32.80
2023-07-01T15:49:10.614Z,32.80
2023-07-01T15:51:39.005Z,32.80
2023-07-01T15:54:05.965Z,32.82
2023-07-01T15:56:33.116Z,32.85
2023-07-01T15:58:59.907Z,32.87
2023-07-01T16:01:27.888Z,32.88
2023-07-01T16:03:54.788Z,32.86
2023-07-01T16:06:21.938Z,32.88
2023-07-01T16:08:51.352Z,32.89
2023-07-01T16:11:34.325Z,32.88
2023-07-01T16:14:01.784Z,32.90
2023-07-01T16:16:43.312Z,32.90
2023-07-01T16:19:13.214Z,32.90
2023-07-01T16:21:40.467Z,32.90
2023-07-01T16:24:31.631Z,32.91
2023-07-01T16:26:58.737Z,32.92
2023-07-01T16:29:25.760Z,32.93
2023-07-01T16:31:52.899Z,32.91
2023-07-01T16:34:22.614Z,32.90
2023-07-01T16:36:49.698Z,32.87
2023-07-01T16:39:16.925Z,32.87
2023-07-01T16:41:44.122Z,32.87
2023-07-01T16:44:10.906Z,32.86
2023-07-01T16:46:39.115Z,32.86
2023-07-01T16:49:07.476Z,32.84
2023-07-01T16:51:35.696Z,32.84
2023-07-01T16:54:12.599Z,32.81
2023-07-01T16:56:40.870Z,32.76
2023-07-01T16:59:09.337Z,32.74
2023-07-01T17:01:41.295Z,32.77
2023-07-01T17:04:12.169Z,32.77
2023-07-01T17:06:43.212Z,32.73
2023-07-01T17:09:45.665Z,32.73
2023-07-01T17:12:36.473Z,32.70
2023-07-01T17:15:29.967Z,32.71
2023-07-01T17:17:57.177Z,32.67
2023-07-01T17:20:24.164Z,32.64
2023-07-01T17:22:51.250Z,32.48
2023-07-01T17:25:18.187Z,32.36
2023-07-01T17:27:45.329Z,32.33
2023-07-01T17:30:12.337Z,32.35
2023-07-01T17:32:39.605Z,32.54
2023-07-01T17:35:17.771Z,32.36
2023-07-01T17:37:48.734Z,32.53
2023-07-01T17:40:16.229Z,32.69
2023-07-01T17:42:43.428Z,32.77
2023-07-01T17:45:10.796Z,32.64
2023-07-01T17:47:38.040Z,32.41
2023-07-01T17:50:19.572Z,32.66
2023-07-01T17:52:49.412Z,32.61
2023-07-01T17:55:16.625Z,32.49
2023-07-01T17:57:55.519Z,32.41
2023-07-01T18:00:24.693Z,32.38
2023-07-01T18:02:52.189Z,32.33
2023-07-01T18:05:19.833Z,32.09
2023-07-01T18:07:47.009Z,32.04
2023-07-01T18:10:13.923Z,32.09
2023-07-01T18:12:42.558Z,32.10
2023-07-01T18:17:41.037Z,32.03
2023-07-01T18:20:08.439Z,32.00
2023-07-01T18:22:35.996Z,31.96
2023-07-01T18:25:03.230Z,31.89
2023-07-01T18:27:30.383Z,31.88
2023-07-01T18:29:57.172Z,31.85
2023-07-01T18:32:26.174Z,31.81
2023-07-01T18:34:53.203Z,31.74
2023-07-01T18:37:20.327Z,31.69
2023-07-01T18:39:47.369Z,31.65
2023-07-01T18:42:14.592Z,31.60
2023-07-01T18:44:41.415Z,31.56
2023-07-01T18:47:08.635Z,31.51
2023-07-01T18:49:35.721Z,31.45
2023-07-01T18:52:04.330Z,31.40
2023-07-01T18:54:31.506Z,31.34
2023-07-01T18:56:58.663Z,31.30
2023-07-01T18:59:25.464Z,31.21
2023-07-01T19:01:52.595Z,31.15
2023-07-01T19:04:19.434Z,31.11
2023-07-01T19:06:46.614Z,31.08
2023-07-01T19:09:14.184Z,31.03
2023-07-01T19:11:41.406Z,30.95
2023-07-01T19:14:08.224Z,30.92
2023-07-01T19:16:35.442Z,30.88
2023-07-01T19:19:02.478Z,30.82
2023-07-01T19:21:30.201Z,30.76
2023-07-01T19:23:57.014Z,30.73
2023-07-01T19:26:24.118Z,30.63
2023-07-01T19:28:50.927Z,30.64
2023-07-01T19:31:18.087Z,30.54
2023-07-01T19:33:44.877Z,30.52
2023-07-01T19:36:12.095Z,30.50
2023-07-01T19:38:38.867Z,30.44
2023-07-01T19:41:06.026Z,30.38
2023-07-01T19:43:32.907Z,30.30
2023-07-01T19:46:00.077Z,30.29
2023-07-01T19:48:26.917Z,30.22
2023-07-01T19:50:54.295Z,30.15
2023-07-01T19:53:22.315Z,30.10
2023-07-01T19:55:49.572Z,30.06
2023-07-01T19:58:20.643Z,29.98
2023-07-01T20:00:48.243Z,29.93
2023-07-01T20:03:15.127Z,29.89
2023-07-01T20:05:45.782Z,29.76
2023-07-01T20:08:13.743Z,29.81
2023-07-01T20:10:40.952Z,29.75
2023-07-01T20:13:08.363Z,29.69
2023-07-01T20:15:35.780Z,29.66
2023-07-01T20:18:03.074Z,29.63
2023-07-01T20:20:31.574Z,29.54
2023-07-01T20:22:58.446Z,29.50
2023-07-01T20:25:25.580Z,29.49
2023-07-01T20:27:52.546Z,29.45
2023-07-01T20:30:19.910Z,29.39
2023-07-01T20:32:47.021Z,29.35
2023-07-01T20:35:14.217Z,29.29
2023-07-01T20:37:41.132Z,29.25
2023-07-01T20:40:08.783Z,29.24
2023-07-01T20:42:38.906Z,29.17
2023-07-01T20:45:06.661Z,29.11
2023-07-01T20:47:33.531Z,29.12
2023-07-01T20:50:00.684Z,29.07
2023-07-01T20:52:27.664Z,29.05
2023-07-01T20:54:55.975Z,28.97
2023-07-01T20:57:22.930Z,28.96
2023-07-01T20:59:50.146Z,28.92
2023-07-01T21:02:17.306Z,28.86
2023-07-01T21:04:46.796Z,28.85
2023-07-01T21:07:13.695Z,28.84
2023-07-01T21:09:40.875Z,28.78
2023-07-01T21:12:07.889Z,28.77
2023-07-01T21:14:35.022Z,28.70
2023-07-01T21:17:02.085Z,28.70
2023-07-01T21:19:29.315Z,28.70
2023-07-01T21:21:56.253Z,28.63
2023-07-01T21:24:23.425Z,28.58
2023-07-01T21:26:50.316Z,28.53
2023-07-01T21:29:17.925Z,28.48
2023-07-01T21:31:51.895Z,28.43
2023-07-01T21:34:20.642Z,28.39
2023-07-01T21:36:51.510Z,28.37
2023-07-01T21:39:25.801Z,28.38
2023-07-01T21:41:52.744Z,28.34
2023-07-01T21:44:20.878Z,28.33
2023-07-01T21:46:47.865Z,28.26
2023-07-01T21:49:15.890Z,28.23
2023-07-01T21:51:47.559Z,28.24
2023-07-01T21:54:20.576Z,28.16
2023-07-01T21:56:49.468Z,28.12
2023-07-01T21:59:17.272Z,28.08
2023-07-01T22:01:44.323Z,28.08
2023-07-01T22:04:12.257Z,28.13
2023-07-01T22:06:43.416Z,28.02
2023-07-01T22:09:10.713Z,28.06
2023-07-01T22:11:38.104Z,28.01
2023-07-01T22:14:06.096Z,27.97
2023-07-01T22:16:33.122Z,27.96
2023-07-01T22:19:00.281Z,27.89
2023-07-01T22:21:30.971Z,27.83
2023-07-01T22:24:01.579Z,27.83
2023-07-01T22:26:29.472Z,27.82
2023-07-01T22:28:56.736Z,27.77
2023-07-01T22:31:23.620Z,27.76
2023-07-01T22:33:50.814Z,27.72
2023-07-01T22:36:17.692Z,27.71
2023-07-01T22:38:45.507Z,27.63
2023-07-01T22:41:13.298Z,27.60
2023-07-01T22:43:43.437Z,27.58
2023-07-01T22:46:10.970Z,27.59
2023-07-01T22:48:38.789Z,27.55
2023-07-01T22:51:05.761Z,27.54
2023-07-01T22:53:33.018Z,27.47
2023-07-01T22:56:00.138Z,27.41
2023-07-01T22:58:27.322Z,27.47
2023-07-01T23:00:54.329Z,27.36
2023-07-01T23:03:21.640Z,27.31
2023-07-01T23:05:48.651Z,27.36
2023-07-01T23:08:16.027Z,27.29
2023-07-01T23:10:42.914Z,27.26
2023-07-01T23:13:10.074Z,27.19
2023-07-01T23:15:38.727Z,27.19
2023-07-01T23:18:10.136Z,27.11
2023-07-01T23:20:40.124Z,27.08
2023-07-01T23:23:07.963Z,27.08
2023-07-01T23:25:34.819Z,27.09
2023-07-01T23:28:10.729Z,27.05
2023-07-01T23:30:38.552Z,27.03
2023-07-01T23:33:05.666Z,26.96
2023-07-01T23:35:32.508Z,26.97
2023-07-01T23:37:59.589Z,26.91
2023-07-01T23:40:26.393Z,26.86
2023-07-01T23:42:53.487Z,26.82
2023-07-01T23:45:20.376Z,26.85
2023-07-01T23:47:49.272Z,26.80
2023-07-01T23:50:17.323Z,26.71
2023-07-01T23:52:44.511Z,26.68
2023-07-01T23:55:11.366Z,26.70
2023-07-01T23:57:38.508Z,26.71
